Monte Toledo — CQRA — position and weather

sailwx.info

Track history (hours):
 
Tides and Currents Weather Stations Pressure Air Temp Water Temp Dewpoint Dewpoint Depression Visibility Wind Speed Wind Dir Waves Ship Positions

Monte Toledo

Last reported at 2016-Jan-31 13:26 UTC. Time now 2016-Feb-09 22:36 UTC.
Position N 36°19' E 014°52'.
Warning: this ship's position is 9 days out of date.

Length 274 m; draft 9 m.

Type: Tanker. MMSI: 255740000.

Date/timePositionNaut miles runAvg speedWind from/ knotsBaromVisibWave heightAir tempDewpointWater temp
2016-Jan-31 13:26N 36°19' E 014°52'1314.5
2016-Jan-31 12:33N 36°23' E 014°37'1414.1
2016-Jan-31 11:33N 36°27' E 014°20'1414.0
2016-Jan-31 10:33N 36°31' E 014°03'1514.9
2016-Jan-31 09:33N 36°35' E 013°46'4514.9
2016-Jan-31 06:33N 36°48' E 012°52'19214.6
2016-Jan-30 17:26N 37°52' E 009°05'54514.4
2016-Jan-29 03:33N 36°19' W 002°09'1915.9
2016-Jan-29 02:22N 36°15' W 002°32'13715.5
2016-Jan-28 17:34N 35°58' W 005°20'  
2016-Jan-24 08:24N 28°33' W 013°12'1313.6
2016-Jan-24 07:28N 28°23' W 013°21'2613.6
2016-Jan-24 05:33N 28°01' W 013°38'1313.5
2016-Jan-24 04:33N 27°51' W 013°47'1413.6
2016-Jan-24 03:33N 27°40' W 013°57'1313.3
2016-Jan-24 02:33N 27°30' W 014°07'1313.3
2016-Jan-24 01:33N 27°20' W 014°16'1413.7
2016-Jan-24 00:33N 27°09' W 014°26'1413.9
2016-Jan-23 23:33N 26°59' W 014°36'1414.0
2016-Jan-23 22:33N 26°48' W 014°47'  
Track history (hours):
 
Tides and Currents Weather Stations Pressure Air Temp Water Temp Dewpoint Dewpoint Depression Visibility Wind Speed Wind Dir Waves Ship Positions

Monte Toledo

Last reported at 2016-Jan-31 13:26 UTC. Time now 2016-Feb-09 22:36 UTC.
Position N 36°19' E 014°52'.
Warning: this ship's position is 9 days out of date.

Length 274 m; draft 9 m.

Type: Tanker. MMSI: 255740000.

Date/timePositionNaut miles runAvg speedWind from/ knotsBaromVisibWave heightAir tempDewpointWater temp
2016-Jan-31 13:26N 36°19' E 014°52'1314.5
2016-Jan-31 12:33N 36°23' E 014°37'1414.1
2016-Jan-31 11:33N 36°27' E 014°20'1414.0
2016-Jan-31 10:33N 36°31' E 014°03'1514.9
2016-Jan-31 09:33N 36°35' E 013°46'4514.9
2016-Jan-31 06:33N 36°48' E 012°52'19214.6
2016-Jan-30 17:26N 37°52' E 009°05'54514.4
2016-Jan-29 03:33N 36°19' W 002°09'1915.9
2016-Jan-29 02:22N 36°15' W 002°32'13715.5
2016-Jan-28 17:34N 35°58' W 005°20'  
2016-Jan-24 08:24N 28°33' W 013°12'1313.6
2016-Jan-24 07:28N 28°23' W 013°21'2613.6
2016-Jan-24 05:33N 28°01' W 013°38'1313.5
2016-Jan-24 04:33N 27°51' W 013°47'1413.6
2016-Jan-24 03:33N 27°40' W 013°57'1313.3
2016-Jan-24 02:33N 27°30' W 014°07'1313.3
2016-Jan-24 01:33N 27°20' W 014°16'1413.7
2016-Jan-24 00:33N 27°09' W 014°26'1413.9
2016-Jan-23 23:33N 26°59' W 014°36'1414.0
2016-Jan-23 22:33N 26°48' W 014°47'  

Dump ship's entire track history